sensor_id;sensor_type;location;lat;lon;timestamp;P1;durP1;ratioP1;P2;durP2;ratioP2
7116;SDS011;3600;48.568;7.870;2023-07-09T00:00:06;5.90;;;4.55;;
7116;SDS011;3600;48.568;7.870;2023-07-09T00:03:00;5.80;;;4.57;;
7116;SDS011;3600;48.568;7.870;2023-07-09T00:09:20;5.38;;;4.10;;
7116;SDS011;3600;48.568;7.870;2023-07-09T00:12:15;6.65;;;4.80;;
7116;SDS011;3600;48.568;7.870;2023-07-09T00:14:53;5.45;;;4.22;;
7116;SDS011;3600;48.568;7.870;2023-07-09T00:18:10;6.45;;;4.72;;
7116;SDS011;3600;48.568;7.870;2023-07-09T00:21:14;5.05;;;4.55;;
7116;SDS011;3600;48.568;7.870;2023-07-09T00:24:31;4.90;;;4.20;;
7116;SDS011;3600;48.568;7.870;2023-07-09T00:30:25;5.18;;;4.10;;
7116;SDS011;3600;48.568;7.870;2023-07-09T00:33:15;4.30;;;3.85;;
7116;SDS011;3600;48.568;7.870;2023-07-09T00:39:21;5.82;;;4.00;;
7116;SDS011;3600;48.568;7.870;2023-07-09T00:42:02;5.30;;;4.43;;
7116;SDS011;3600;48.568;7.870;2023-07-09T00:44:54;4.55;;;4.07;;
7116;SDS011;3600;48.568;7.870;2023-07-09T00:53:30;5.88;;;3.83;;
7116;SDS011;3600;48.568;7.870;2023-07-09T00:59:30;6.55;;;4.22;;
7116;SDS011;3600;48.568;7.870;2023-07-09T01:02:47;7.85;;;4.32;;
7116;SDS011;3600;48.568;7.870;2023-07-09T01:05:53;5.35;;;3.85;;
7116;SDS011;3600;48.568;7.870;2023-07-09T01:08:21;3.90;;;3.50;;
7116;SDS011;3600;48.568;7.870;2023-07-09T01:10:48;7.35;;;3.88;;
7116;SDS011;3600;48.568;7.870;2023-07-09T01:13:15;4.22;;;3.63;;
7116;SDS011;3600;48.568;7.870;2023-07-09T01:15:46;4.63;;;3.42;;
7116;SDS011;3600;48.568;7.870;2023-07-09T01:18:13;5.03;;;3.70;;
7116;SDS011;3600;48.568;7.870;2023-07-09T01:20:41;4.53;;;4.13;;
7116;SDS011;3600;48.568;7.870;2023-07-09T01:23:08;6.55;;;4.28;;
7116;SDS011;3600;48.568;7.870;2023-07-09T01:25:37;4.55;;;4.00;;
7116;SDS011;3600;48.568;7.870;2023-07-09T01:28:08;4.32;;;3.63;;
7116;SDS011;3600;48.568;7.870;2023-07-09T01:30:36;5.65;;;4.20;;
7116;SDS011;3600;48.568;7.870;2023-07-09T01:33:05;5.43;;;4.13;;
7116;SDS011;3600;48.568;7.870;2023-07-09T01:35:33;6.80;;;4.00;;
7116;SDS011;3600;48.568;7.870;2023-07-09T01:38:07;6.13;;;3.90;;
7116;SDS011;3600;48.568;7.870;2023-07-09T01:40:35;5.93;;;4.07;;
7116;SDS011;3600;48.568;7.870;2023-07-09T01:43:05;7.43;;;4.30;;
7116;SDS011;3600;48.568;7.870;2023-07-09T01:45:35;4.22;;;3.83;;
7116;SDS011;3600;48.568;7.870;2023-07-09T01:48:03;5.68;;;4.47;;
7116;SDS011;3600;48.568;7.870;2023-07-09T01:50:31;4.32;;;3.92;;
7116;SDS011;3600;48.568;7.870;2023-07-09T01:52:58;5.10;;;4.00;;
7116;SDS011;3600;48.568;7.870;2023-07-09T01:55:25;4.80;;;4.30;;
7116;SDS011;3600;48.568;7.870;2023-07-09T01:57:54;6.15;;;3.97;;
7116;SDS011;3600;48.568;7.870;2023-07-09T02:00:20;5.50;;;4.53;;
7116;SDS011;3600;48.568;7.870;2023-07-09T02:02:47;5.95;;;4.45;;
7116;SDS011;3600;48.568;7.870;2023-07-09T02:05:19;5.53;;;4.63;;
7116;SDS011;3600;48.568;7.870;2023-07-09T02:07:46;4.78;;;4.22;;
7116;SDS011;3600;48.568;7.870;2023-07-09T02:10:14;4.90;;;4.40;;
7116;SDS011;3600;48.568;7.870;2023-07-09T02:12:42;6.78;;;4.15;;
7116;SDS011;3600;48.568;7.870;2023-07-09T02:15:10;6.35;;;4.60;;
7116;SDS011;3600;48.568;7.870;2023-07-09T02:17:37;7.45;;;4.40;;
7116;SDS011;3600;48.568;7.870;2023-07-09T02:20:04;7.30;;;4.53;;
7116;SDS011;3600;48.568;7.870;2023-07-09T02:22:33;4.50;;;4.10;;
7116;SDS011;3600;48.568;7.870;2023-07-09T02:25:01;5.00;;;4.35;;
7116;SDS011;3600;48.568;7.870;2023-07-09T02:27:28;4.68;;;3.95;;
7116;SDS011;3600;48.568;7.870;2023-07-09T02:29:55;4.35;;;3.95;;
7116;SDS011;3600;48.568;7.870;2023-07-09T02:32:23;6.82;;;4.20;;
7116;SDS011;3600;48.568;7.870;2023-07-09T02:34:53;4.70;;;4.20;;
7116;SDS011;3600;48.568;7.870;2023-07-09T02:37:22;4.60;;;4.00;;
7116;SDS011;3600;48.568;7.870;2023-07-09T02:39:50;6.07;;;3.95;;
7116;SDS011;3600;48.568;7.870;2023-07-09T02:42:18;4.78;;;4.28;;
7116;SDS011;3600;48.568;7.870;2023-07-09T02:44:46;6.43;;;4.60;;
7116;SDS011;3600;48.568;7.870;2023-07-09T02:47:13;5.15;;;4.32;;
7116;SDS011;3600;48.568;7.870;2023-07-09T02:49:41;5.10;;;4.07;;
7116;SDS011;3600;48.568;7.870;2023-07-09T02:52:08;5.15;;;4.65;;
7116;SDS011;3600;48.568;7.870;2023-07-09T02:54:35;4.78;;;4.38;;
7116;SDS011;3600;48.568;7.870;2023-07-09T02:57:03;4.80;;;4.28;;
7116;SDS011;3600;48.568;7.870;2023-07-09T02:59:30;4.78;;;4.35;;
7116;SDS011;3600;48.568;7.870;2023-07-09T03:01:57;6.35;;;4.45;;
7116;SDS011;3600;48.568;7.870;2023-07-09T03:04:25;6.68;;;4.28;;
7116;SDS011;3600;48.568;7.870;2023-07-09T03:06:55;5.47;;;4.25;;
7116;SDS011;3600;48.568;7.870;2023-07-09T03:09:21;5.60;;;4.50;;
7116;SDS011;3600;48.568;7.870;2023-07-09T03:11:49;4.38;;;3.60;;
7116;SDS011;3600;48.568;7.870;2023-07-09T03:14:16;5.68;;;4.05;;
7116;SDS011;3600;48.568;7.870;2023-07-09T03:16:43;5.82;;;4.32;;
7116;SDS011;3600;48.568;7.870;2023-07-09T03:19:10;6.55;;;4.32;;
7116;SDS011;3600;48.568;7.870;2023-07-09T03:21:37;5.53;;;4.90;;
7116;SDS011;3600;48.568;7.870;2023-07-09T03:24:04;4.68;;;3.83;;
7116;SDS011;3600;48.568;7.870;2023-07-09T03:26:32;6.00;;;4.03;;
7116;SDS011;3600;48.568;7.870;2023-07-09T03:28:58;7.72;;;4.68;;
7116;SDS011;3600;48.568;7.870;2023-07-09T03:31:26;4.00;;;3.70;;
7116;SDS011;3600;48.568;7.870;2023-07-09T03:33:53;4.75;;;4.25;;
7116;SDS011;3600;48.568;7.870;2023-07-09T03:36:20;4.13;;;3.67;;
7116;SDS011;3600;48.568;7.870;2023-07-09T03:38:47;4.78;;;4.28;;
7116;SDS011;3600;48.568;7.870;2023-07-09T03:41:14;5.10;;;4.70;;
7116;SDS011;3600;48.568;7.870;2023-07-09T03:43:42;4.20;;;3.85;;
7116;SDS011;3600;48.568;7.870;2023-07-09T03:46:08;4.65;;;4.10;;
7116;SDS011;3600;48.568;7.870;2023-07-09T03:48:35;5.93;;;4.47;;
7116;SDS011;3600;48.568;7.870;2023-07-09T03:51:02;6.75;;;4.45;;
7116;SDS011;3600;48.568;7.870;2023-07-09T03:53:29;9.98;;;4.10;;
7116;SDS011;3600;48.568;7.870;2023-07-09T03:55:56;5.13;;;4.43;;
7116;SDS011;3600;48.568;7.870;2023-07-09T03:58:24;5.00;;;4.50;;
7116;SDS011;3600;48.568;7.870;2023-07-09T04:00:52;4.55;;;4.15;;
7116;SDS011;3600;48.568;7.870;2023-07-09T04:03:21;7.30;;;4.43;;
7116;SDS011;3600;48.568;7.870;2023-07-09T04:05:49;5.05;;;4.60;;
7116;SDS011;3600;48.568;7.870;2023-07-09T04:08:16;4.53;;;4.00;;
7116;SDS011;3600;48.568;7.870;2023-07-09T04:10:44;5.93;;;4.20;;
7116;SDS011;3600;48.568;7.870;2023-07-09T04:13:10;7.13;;;3.95;;
7116;SDS011;3600;48.568;7.870;2023-07-09T04:15:37;4.47;;;4.07;;
7116;SDS011;3600;48.568;7.870;2023-07-09T04:18:05;4.90;;;3.90;;
7116;SDS011;3600;48.568;7.870;2023-07-09T04:20:31;5.43;;;4.32;;
7116;SDS011;3600;48.568;7.870;2023-07-09T04:23:00;4.50;;;4.10;;
7116;SDS011;3600;48.568;7.870;2023-07-09T04:25:28;6.03;;;4.20;;
7116;SDS011;3600;48.568;7.870;2023-07-09T04:27:55;4.57;;;4.18;;
7116;SDS011;3600;48.568;7.870;2023-07-09T04:30:22;7.75;;;4.30;;
7116;SDS011;3600;48.568;7.870;2023-07-09T04:32:49;5.20;;;3.83;;
7116;SDS011;3600;48.568;7.870;2023-07-09T04:35:16;4.53;;;4.13;;
7116;SDS011;3600;48.568;7.870;2023-07-09T04:37:43;4.68;;;3.88;;
7116;SDS011;3600;48.568;7.870;2023-07-09T04:40:11;4.93;;;3.95;;
7116;SDS011;3600;48.568;7.870;2023-07-09T04:42:39;4.63;;;4.10;;
7116;SDS011;3600;48.568;7.870;2023-07-09T04:45:06;4.75;;;4.18;;
7116;SDS011;3600;48.568;7.870;2023-07-09T04:47:35;5.28;;;3.80;;
7116;SDS011;3600;48.568;7.870;2023-07-09T04:50:03;5.60;;;4.18;;
7116;SDS011;3600;48.568;7.870;2023-07-09T04:52:31;5.82;;;4.30;;
7116;SDS011;3600;48.568;7.870;2023-07-09T04:54:58;6.15;;;4.53;;
7116;SDS011;3600;48.568;7.870;2023-07-09T04:57:26;5.03;;;4.20;;
7116;SDS011;3600;48.568;7.870;2023-07-09T04:59:53;4.80;;;4.13;;
7116;SDS011;3600;48.568;7.870;2023-07-09T05:02:20;4.70;;;4.20;;
7116;SDS011;3600;48.568;7.870;2023-07-09T05:04:47;4.22;;;3.83;;
7116;SDS011;3600;48.568;7.870;2023-07-09T05:07:14;5.50;;;4.22;;
7116;SDS011;3600;48.568;7.870;2023-07-09T05:09:41;6.53;;;4.55;;
7116;SDS011;3600;48.568;7.870;2023-07-09T05:12:08;5.20;;;4.50;;
7116;SDS011;3600;48.568;7.870;2023-07-09T05:14:35;4.55;;;4.10;;
7116;SDS011;3600;48.568;7.870;2023-07-09T05:17:02;5.50;;;4.18;;
7116;SDS011;3600;48.568;7.870;2023-07-09T05:19:30;5.13;;;4.03;;
7116;SDS011;3600;48.568;7.870;2023-07-09T05:21:58;5.10;;;4.28;;
7116;SDS011;3600;48.568;7.870;2023-07-09T05:24:25;5.93;;;3.97;;
7116;SDS011;3600;48.568;7.870;2023-07-09T05:26:54;4.90;;;4.38;;
7116;SDS011;3600;48.568;7.870;2023-07-09T05:29:21;5.00;;;4.50;;
7116;SDS011;3600;48.568;7.870;2023-07-09T05:31:49;5.00;;;3.95;;
7116;SDS011;3600;48.568;7.870;2023-07-09T05:34:15;4.28;;;3.88;;
7116;SDS011;3600;48.568;7.870;2023-07-09T05:36:42;5.32;;;4.40;;
7116;SDS011;3600;48.568;7.870;2023-07-09T05:39:11;6.47;;;3.97;;
7116;SDS011;3600;48.568;7.870;2023-07-09T05:41:38;4.88;;;4.38;;
7116;SDS011;3600;48.568;7.870;2023-07-09T05:44:05;6.65;;;4.50;;
7116;SDS011;3600;48.568;7.870;2023-07-09T05:46:35;6.43;;;3.88;;
7116;SDS011;3600;48.568;7.870;2023-07-09T05:49:03;5.32;;;4.20;;
7116;SDS011;3600;48.568;7.870;2023-07-09T05:51:31;5.57;;;4.50;;
7116;SDS011;3600;48.568;7.870;2023-07-09T05:53:58;4.75;;;4.28;;
7116;SDS011;3600;48.568;7.870;2023-07-09T05:56:25;4.82;;;4.30;;
7116;SDS011;3600;48.568;7.870;2023-07-09T05:58:53;4.50;;;4.05;;
7116;SDS011;3600;48.568;7.870;2023-07-09T06:01:19;4.53;;;4.03;;
7116;SDS011;3600;48.568;7.870;2023-07-09T06:03:46;4.40;;;4.00;;
7116;SDS011;3600;48.568;7.870;2023-07-09T06:06:13;4.85;;;4.30;;
7116;SDS011;3600;48.568;7.870;2023-07-09T06:08:43;4.72;;;4.22;;
7116;SDS011;3600;48.568;7.870;2023-07-09T06:11:10;5.00;;;3.90;;
7116;SDS011;3600;48.568;7.870;2023-07-09T06:13:37;5.43;;;4.70;;
7116;SDS011;3600;48.568;7.870;2023-07-09T06:16:04;5.90;;;4.65;;
7116;SDS011;3600;48.568;7.870;2023-07-09T06:18:31;5.85;;;4.53;;
7116;SDS011;3600;48.568;7.870;2023-07-09T06:21:00;7.70;;;4.68;;
7116;SDS011;3600;48.568;7.870;2023-07-09T06:23:28;5.57;;;4.50;;
7116;SDS011;3600;48.568;7.870;2023-07-09T06:25:56;4.30;;;3.90;;
7116;SDS011;3600;48.568;7.870;2023-07-09T06:28:24;5.25;;;4.07;;
7116;SDS011;3600;48.568;7.870;2023-07-09T06:30:52;6.68;;;4.43;;
7116;SDS011;3600;48.568;7.870;2023-07-09T06:33:19;4.40;;;4.00;;
7116;SDS011;3600;48.568;7.870;2023-07-09T06:35:46;6.30;;;4.20;;
7116;SDS011;3600;48.568;7.870;2023-07-09T06:38:14;6.22;;;4.43;;
7116;SDS011;3600;48.568;7.870;2023-07-09T06:40:42;4.93;;;3.92;;
7116;SDS011;3600;48.568;7.870;2023-07-09T06:43:09;4.88;;;4.47;;
7116;SDS011;3600;48.568;7.870;2023-07-09T06:45:36;6.95;;;4.72;;
7116;SDS011;3600;48.568;7.870;2023-07-09T06:48:03;4.55;;;4.15;;
7116;SDS011;3600;48.568;7.870;2023-07-09T06:50:34;4.55;;;4.15;;
7116;SDS011;3600;48.568;7.870;2023-07-09T06:53:01;4.60;;;4.20;;
7116;SDS011;3600;48.568;7.870;2023-07-09T06:55:28;4.43;;;4.03;;
7116;SDS011;3600;48.568;7.870;2023-07-09T06:57:55;5.13;;;4.55;;
7116;SDS011;3600;48.568;7.870;2023-07-09T07:00:21;4.53;;;3.85;;
7116;SDS011;3600;48.568;7.870;2023-07-09T07:02:48;5.43;;;4.20;;
7116;SDS011;3600;48.568;7.870;2023-07-09T07:05:16;5.53;;;4.20;;
7116;SDS011;3600;48.568;7.870;2023-07-09T07:07:44;5.80;;;4.40;;
7116;SDS011;3600;48.568;7.870;2023-07-09T07:10:11;5.13;;;4.25;;
7116;SDS011;3600;48.568;7.870;2023-07-09T07:12:42;6.00;;;4.45;;
7116;SDS011;3600;48.568;7.870;2023-07-09T07:15:11;4.97;;;4.05;;
7116;SDS011;3600;48.568;7.870;2023-07-09T07:17:39;3.70;;;3.40;;
7116;SDS011;3600;48.568;7.870;2023-07-09T07:20:08;6.00;;;4.15;;
7116;SDS011;3600;48.568;7.870;2023-07-09T07:22:36;4.97;;;4.28;;
7116;SDS011;3600;48.568;7.870;2023-07-09T07:25:04;4.72;;;4.07;;
7116;SDS011;3600;48.568;7.870;2023-07-09T07:27:32;4.90;;;4.40;;
7116;SDS011;3600;48.568;7.870;2023-07-09T07:29:59;4.88;;;4.45;;
7116;SDS011;3600;48.568;7.870;2023-07-09T07:32:26;6.43;;;4.55;;
7116;SDS011;3600;48.568;7.870;2023-07-09T07:34:53;5.78;;;4.53;;
7116;SDS011;3600;48.568;7.870;2023-07-09T07:37:21;5.55;;;4.28;;
7116;SDS011;3600;48.568;7.870;2023-07-09T07:39:48;5.00;;;4.50;;
7116;SDS011;3600;48.568;7.870;2023-07-09T07:42:15;5.60;;;4.95;;
7116;SDS011;3600;48.568;7.870;2023-07-09T07:44:42;5.47;;;4.07;;
7116;SDS011;3600;48.568;7.870;2023-07-09T07:47:09;6.75;;;4.57;;
7116;SDS011;3600;48.568;7.870;2023-07-09T07:49:36;5.15;;;4.60;;
7116;SDS011;3600;48.568;7.870;2023-07-09T07:52:03;5.75;;;4.63;;
7116;SDS011;3600;48.568;7.870;2023-07-09T07:54:30;4.88;;;4.43;;
7116;SDS011;3600;48.568;7.870;2023-07-09T07:57:00;5.35;;;4.18;;
7116;SDS011;3600;48.568;7.870;2023-07-09T07:59:27;4.55;;;4.15;;
7116;SDS011;3600;48.568;7.870;2023-07-09T08:01:54;5.25;;;4.43;;
7116;SDS011;3600;48.568;7.870;2023-07-09T08:04:21;4.65;;;4.22;;
7116;SDS011;3600;48.568;7.870;2023-07-09T08:06:48;4.88;;;4.38;;
7116;SDS011;3600;48.568;7.870;2023-07-09T08:09:15;5.80;;;4.40;;
7116;SDS011;3600;48.568;7.870;2023-07-09T08:11:42;5.63;;;4.35;;
7116;SDS011;3600;48.568;7.870;2023-07-09T08:14:10;4.90;;;4.30;;
7116;SDS011;3600;48.568;7.870;2023-07-09T08:16:37;6.78;;;4.47;;
7116;SDS011;3600;48.568;7.870;2023-07-09T08:19:05;5.60;;;5.10;;
7116;SDS011;3600;48.568;7.870;2023-07-09T08:21:32;5.40;;;4.90;;
7116;SDS011;3600;48.568;7.870;2023-07-09T08:23:59;7.40;;;4.35;;
7116;SDS011;3600;48.568;7.870;2023-07-09T08:26:25;5.05;;;4.50;;
7116;SDS011;3600;48.568;7.870;2023-07-09T08:28:53;6.25;;;4.30;;
7116;SDS011;3600;48.568;7.870;2023-07-09T08:31:20;5.78;;;4.05;;
7116;SDS011;3600;48.568;7.870;2023-07-09T08:33:47;5.40;;;4.38;;
7116;SDS011;3600;48.568;7.870;2023-07-09T08:36:14;5.18;;;4.75;;
7116;SDS011;3600;48.568;7.870;2023-07-09T08:38:41;5.22;;;4.25;;
7116;SDS011;3600;48.568;7.870;2023-07-09T08:41:14;5.22;;;4.32;;
7116;SDS011;3600;48.568;7.870;2023-07-09T08:46:43;5.43;;;3.95;;
7116;SDS011;3600;48.568;7.870;2023-07-09T08:49:28;8.13;;;4.57;;
7116;SDS011;3600;48.568;7.870;2023-07-09T08:52:23;6.13;;;4.18;;
7116;SDS011;3600;48.568;7.870;2023-07-09T08:55:06;5.28;;;4.78;;
7116;SDS011;3600;48.568;7.870;2023-07-09T08:57:38;5.95;;;4.60;;
7116;SDS011;3600;48.568;7.870;2023-07-09T09:02:49;4.45;;;4.05;;
7116;SDS011;3600;48.568;7.870;2023-07-09T09:05:34;5.15;;;4.53;;
7116;SDS011;3600;48.568;7.870;2023-07-09T09:10:55;4.72;;;4.28;;
7116;SDS011;3600;48.568;7.870;2023-07-09T09:13:29;4.30;;;3.90;;
7116;SDS011;3600;48.568;7.870;2023-07-09T09:15:58;5.72;;;4.35;;
7116;SDS011;3600;48.568;7.870;2023-07-09T09:18:36;6.05;;;4.45;;
7116;SDS011;3600;48.568;7.870;2023-07-09T09:21:10;5.80;;;4.20;;
7116;SDS011;3600;48.568;7.870;2023-07-09T09:24:03;4.40;;;4.05;;
7116;SDS011;3600;48.568;7.870;2023-07-09T09:27:05;4.60;;;4.20;;
7116;SDS011;3600;48.568;7.870;2023-07-09T09:29:34;5.45;;;4.30;;
7116;SDS011;3600;48.568;7.870;2023-07-09T09:34:46;5.07;;;4.10;;
7116;SDS011;3600;48.568;7.870;2023-07-09T09:37:15;4.95;;;4.25;;
7116;SDS011;3600;48.568;7.870;2023-07-09T09:39:56;6.30;;;5.05;;
7116;SDS011;3600;48.568;7.870;2023-07-09T09:42:42;5.78;;;4.85;;
7116;SDS011;3600;48.568;7.870;2023-07-09T09:45:15;5.07;;;4.40;;
7116;SDS011;3600;48.568;7.870;2023-07-09T09:47:44;12.48;;;4.57;;
7116;SDS011;3600;48.568;7.870;2023-07-09T09:52:43;5.40;;;4.40;;
7116;SDS011;3600;48.568;7.870;2023-07-09T09:55:18;4.43;;;4.03;;
7116;SDS011;3600;48.568;7.870;2023-07-09T09:57:51;5.32;;;3.33;;
7116;SDS011;3600;48.568;7.870;2023-07-09T10:00:22;3.45;;;3.15;;
7116;SDS011;3600;48.568;7.870;2023-07-09T10:02:56;5.35;;;3.65;;
7116;SDS011;3600;48.568;7.870;2023-07-09T10:05:29;4.10;;;3.70;;
7116;SDS011;3600;48.568;7.870;2023-07-09T10:14:22;4.22;;;3.92;;
7116;SDS011;3600;48.568;7.870;2023-07-09T10:16:53;6.20;;;3.70;;
7116;SDS011;3600;48.568;7.870;2023-07-09T10:19:53;4.15;;;3.42;;
7116;SDS011;3600;48.568;7.870;2023-07-09T10:27:42;6.18;;;3.60;;
7116;SDS011;3600;48.568;7.870;2023-07-09T10:30:35;4.05;;;3.65;;
7116;SDS011;3600;48.568;7.870;2023-07-09T10:33:09;4.72;;;4.03;;
7116;SDS011;3600;48.568;7.870;2023-07-09T10:40:50;4.63;;;4.20;;
7116;SDS011;3600;48.568;7.870;2023-07-09T10:43:35;4.15;;;3.78;;
7116;SDS011;3600;48.568;7.870;2023-07-09T10:46:12;4.20;;;3.50;;
7116;SDS011;3600;48.568;7.870;2023-07-09T10:48:43;4.13;;;3.72;;
7116;SDS011;3600;48.568;7.870;2023-07-09T10:51:17;5.80;;;3.80;;
7116;SDS011;3600;48.568;7.870;2023-07-09T10:54:10;7.25;;;3.58;;
7116;SDS011;3600;48.568;7.870;2023-07-09T10:56:45;4.13;;;3.65;;
7116;SDS011;3600;48.568;7.870;2023-07-09T10:59:36;4.50;;;3.25;;
7116;SDS011;3600;48.568;7.870;2023-07-09T11:05:14;3.63;;;3.33;;
7116;SDS011;3600;48.568;7.870;2023-07-09T11:07:44;3.83;;;3.53;;
7116;SDS011;3600;48.568;7.870;2023-07-09T11:10:36;3.78;;;3.47;;
7116;SDS011;3600;48.568;7.870;2023-07-09T11:13:15;5.50;;;3.50;;
7116;SDS011;3600;48.568;7.870;2023-07-09T11:16:12;4.22;;;3.40;;
7116;SDS011;3600;48.568;7.870;2023-07-09T11:18:52;3.55;;;3.25;;
7116;SDS011;3600;48.568;7.870;2023-07-09T11:21:22;4.68;;;3.63;;
7116;SDS011;3600;48.568;7.870;2023-07-09T11:23:50;7.32;;;3.45;;
7116;SDS011;3600;48.568;7.870;2023-07-09T11:26:28;3.85;;;3.55;;
7116;SDS011;3600;48.568;7.870;2023-07-09T11:29:16;6.90;;;3.97;;
7116;SDS011;3600;48.568;7.870;2023-07-09T11:31:45;6.05;;;3.70;;
7116;SDS011;3600;48.568;7.870;2023-07-09T11:36:48;4.88;;;3.72;;
7116;SDS011;3600;48.568;7.870;2023-07-09T11:39:23;5.15;;;3.45;;
7116;SDS011;3600;48.568;7.870;2023-07-09T11:41:58;4.75;;;3.90;;
7116;SDS011;3600;48.568;7.870;2023-07-09T11:44:26;5.18;;;3.38;;
7116;SDS011;3600;48.568;7.870;2023-07-09T11:47:17;4.35;;;3.95;;
7116;SDS011;3600;48.568;7.870;2023-07-09T11:50:00;4.30;;;3.80;;
7116;SDS011;3600;48.568;7.870;2023-07-09T11:52:32;4.35;;;3.95;;
7116;SDS011;3600;48.568;7.870;2023-07-09T11:55:22;6.03;;;3.92;;
7116;SDS011;3600;48.568;7.870;2023-07-09T11:58:04;6.68;;;4.30;;
7116;SDS011;3600;48.568;7.870;2023-07-09T12:00:39;3.92;;;3.53;;
7116;SDS011;3600;48.568;7.870;2023-07-09T12:03:15;5.30;;;3.90;;
7116;SDS011;3600;48.568;7.870;2023-07-09T12:05:59;4.60;;;4.03;;
7116;SDS011;3600;48.568;7.870;2023-07-09T12:08:36;4.93;;;3.60;;
7116;SDS011;3600;48.568;7.870;2023-07-09T12:11:05;4.93;;;3.50;;
7116;SDS011;3600;48.568;7.870;2023-07-09T12:13:36;5.38;;;3.40;;
7116;SDS011;3600;48.568;7.870;2023-07-09T12:16:04;4.15;;;3.40;;
7116;SDS011;3600;48.568;7.870;2023-07-09T12:18:45;4.28;;;3.38;;
7116;SDS011;3600;48.568;7.870;2023-07-09T12:21:12;4.57;;;3.72;;
7116;SDS011;3600;48.568;7.870;2023-07-09T12:23:40;4.28;;;3.80;;
7116;SDS011;3600;48.568;7.870;2023-07-09T12:26:14;4.65;;;3.80;;
7116;SDS011;3600;48.568;7.870;2023-07-09T12:28:42;4.45;;;3.80;;
7116;SDS011;3600;48.568;7.870;2023-07-09T12:31:15;6.03;;;3.35;;
7116;SDS011;3600;48.568;7.870;2023-07-09T12:33:47;5.78;;;3.53;;
7116;SDS011;3600;48.568;7.870;2023-07-09T12:36:16;5.28;;;3.65;;
7116;SDS011;3600;48.568;7.870;2023-07-09T12:38:49;4.38;;;3.97;;
7116;SDS011;3600;48.568;7.870;2023-07-09T12:44:04;4.72;;;3.80;;
7116;SDS011;3600;48.568;7.870;2023-07-09T12:46:31;5.05;;;3.78;;
7116;SDS011;3600;48.568;7.870;2023-07-09T12:48:58;3.63;;;3.35;;
7116;SDS011;3600;48.568;7.870;2023-07-09T12:51:28;4.80;;;3.60;;
7116;SDS011;3600;48.568;7.870;2023-07-09T12:56:56;7.22;;;4.00;;
7116;SDS011;3600;48.568;7.870;2023-07-09T12:59:47;4.70;;;3.92;;
7116;SDS011;3600;48.568;7.870;2023-07-09T13:04:47;4.82;;;3.53;;
7116;SDS011;3600;48.568;7.870;2023-07-09T13:07:34;5.50;;;3.80;;
7116;SDS011;3600;48.568;7.870;2023-07-09T13:10:15;4.97;;;3.88;;
7116;SDS011;3600;48.568;7.870;2023-07-09T13:12:48;4.57;;;4.18;;
7116;SDS011;3600;48.568;7.870;2023-07-09T13:15:21;5.53;;;3.38;;
7116;SDS011;3600;48.568;7.870;2023-07-09T13:18:00;4.88;;;3.30;;
7116;SDS011;3600;48.568;7.870;2023-07-09T13:20:30;4.72;;;3.30;;
7116;SDS011;3600;48.568;7.870;2023-07-09T13:22:58;4.20;;;3.80;;
7116;SDS011;3600;48.568;7.870;2023-07-09T13:25:25;5.22;;;3.70;;
7116;SDS011;3600;48.568;7.870;2023-07-09T13:28:13;4.07;;;3.67;;
7116;SDS011;3600;48.568;7.870;2023-07-09T13:30:44;4.60;;;3.78;;
7116;SDS011;3600;48.568;7.870;2023-07-09T13:33:11;5.40;;;4.90;;
7116;SDS011;3600;48.568;7.870;2023-07-09T13:35:38;5.72;;;4.00;;
7116;SDS011;3600;48.568;7.870;2023-07-09T13:38:11;4.22;;;3.47;;
7116;SDS011;3600;48.568;7.870;2023-07-09T13:40:40;4.95;;;4.05;;
7116;SDS011;3600;48.568;7.870;2023-07-09T13:43:17;3.92;;;3.55;;
7116;SDS011;3600;48.568;7.870;2023-07-09T13:45:49;4.57;;;3.95;;
7116;SDS011;3600;48.568;7.870;2023-07-09T13:48:17;5.55;;;3.78;;
7116;SDS011;3600;48.568;7.870;2023-07-09T13:50:47;5.25;;;3.75;;
7116;SDS011;3600;48.568;7.870;2023-07-09T13:53:17;5.00;;;4.10;;
7116;SDS011;3600;48.568;7.870;2023-07-09T13:55:46;4.47;;;3.63;;
7116;SDS011;3600;48.568;7.870;2023-07-09T13:58:14;4.93;;;3.83;;
7116;SDS011;3600;48.568;7.870;2023-07-09T14:00:43;4.30;;;3.88;;
7116;SDS011;3600;48.568;7.870;2023-07-09T14:03:19;6.47;;;4.13;;
7116;SDS011;3600;48.568;7.870;2023-07-09T14:05:51;5.07;;;3.75;;
7116;SDS011;3600;48.568;7.870;2023-07-09T14:08:18;5.53;;;3.63;;
7116;SDS011;3600;48.568;7.870;2023-07-09T14:10:46;6.10;;;3.53;;
7116;SDS011;3600;48.568;7.870;2023-07-09T14:13:16;6.63;;;4.00;;
7116;SDS011;3600;48.568;7.870;2023-07-09T14:15:44;4.63;;;4.07;;
7116;SDS011;3600;48.568;7.870;2023-07-09T14:18:13;5.15;;;3.60;;
7116;SDS011;3600;48.568;7.870;2023-07-09T14:20:42;6.05;;;3.55;;
7116;SDS011;3600;48.568;7.870;2023-07-09T14:23:13;4.15;;;3.75;;
7116;SDS011;3600;48.568;7.870;2023-07-09T14:25:41;4.40;;;3.70;;
7116;SDS011;3600;48.568;7.870;2023-07-09T14:28:10;6.45;;;3.97;;
7116;SDS011;3600;48.568;7.870;2023-07-09T14:30:42;5.03;;;3.72;;
7116;SDS011;3600;48.568;7.870;2023-07-09T14:33:12;4.40;;;3.50;;
7116;SDS011;3600;48.568;7.870;2023-07-09T14:35:42;4.07;;;3.67;;
7116;SDS011;3600;48.568;7.870;2023-07-09T14:38:20;4.32;;;3.92;;
7116;SDS011;3600;48.568;7.870;2023-07-09T14:40:49;5.22;;;4.20;;
7116;SDS011;3600;48.568;7.870;2023-07-09T14:43:21;4.78;;;4.00;;
7116;SDS011;3600;48.568;7.870;2023-07-09T14:45:48;6.95;;;4.28;;
7116;SDS011;3600;48.568;7.870;2023-07-09T14:48:16;4.45;;;3.95;;
7116;SDS011;3600;48.568;7.870;2023-07-09T14:50:46;5.20;;;4.22;;
7116;SDS011;3600;48.568;7.870;2023-07-09T14:53:15;4.32;;;3.83;;
7116;SDS011;3600;48.568;7.870;2023-07-09T14:55:51;4.90;;;4.10;;
7116;SDS011;3600;48.568;7.870;2023-07-09T14:58:19;6.15;;;3.55;;
7116;SDS011;3600;48.568;7.870;2023-07-09T15:00:48;4.30;;;3.75;;
7116;SDS011;3600;48.568;7.870;2023-07-09T15:03:20;4.53;;;3.83;;
7116;SDS011;3600;48.568;7.870;2023-07-09T15:05:49;6.70;;;3.90;;
7116;SDS011;3600;48.568;7.870;2023-07-09T15:08:17;4.15;;;3.75;;
7116;SDS011;3600;48.568;7.870;2023-07-09T15:10:49;5.57;;;4.18;;
7116;SDS011;3600;48.568;7.870;2023-07-09T15:13:18;4.07;;;3.72;;
7116;SDS011;3600;48.568;7.870;2023-07-09T15:15:53;4.88;;;3.72;;
7116;SDS011;3600;48.568;7.870;2023-07-09T15:18:20;4.95;;;3.83;;
7116;SDS011;3600;48.568;7.870;2023-07-09T15:20:50;6.40;;;3.97;;
7116;SDS011;3600;48.568;7.870;2023-07-09T15:23:20;7.35;;;4.40;;
7116;SDS011;3600;48.568;7.870;2023-07-09T15:25:49;5.15;;;4.13;;
7116;SDS011;3600;48.568;7.870;2023-07-09T15:28:16;4.32;;;3.58;;
7116;SDS011;3600;48.568;7.870;2023-07-09T15:30:43;3.63;;;3.33;;
7116;SDS011;3600;48.568;7.870;2023-07-09T15:33:18;6.40;;;3.90;;
7116;SDS011;3600;48.568;7.870;2023-07-09T15:35:46;6.20;;;3.50;;
7116;SDS011;3600;48.568;7.870;2023-07-09T15:40:45;4.63;;;3.42;;
7116;SDS011;3600;48.568;7.870;2023-07-09T15:43:14;3.70;;;3.28;;
7116;SDS011;3600;48.568;7.870;2023-07-09T15:45:44;3.63;;;2.72;;
7116;SDS011;3600;48.568;7.870;2023-07-09T15:48:20;4.90;;;3.20;;
7116;SDS011;3600;48.568;7.870;2023-07-09T15:50:58;3.80;;;2.92;;
7116;SDS011;3600;48.568;7.870;2023-07-09T15:53:25;3.67;;;2.78;;
7116;SDS011;3600;48.568;7.870;2023-07-09T15:55:54;4.28;;;2.65;;
7116;SDS011;3600;48.568;7.870;2023-07-09T15:58:25;3.28;;;3.00;;
7116;SDS011;3600;48.568;7.870;2023-07-09T16:00:54;3.53;;;2.65;;
7116;SDS011;3600;48.568;7.870;2023-07-09T16:03:21;4.13;;;2.70;;
7116;SDS011;3600;48.568;7.870;2023-07-09T16:05:49;3.78;;;3.08;;
7116;SDS011;3600;48.568;7.870;2023-07-09T16:08:16;4.53;;;2.83;;
7116;SDS011;3600;48.568;7.870;2023-07-09T16:10:43;5.38;;;3.13;;
7116;SDS011;3600;48.568;7.870;2023-07-09T16:13:20;5.30;;;3.25;;
7116;SDS011;3600;48.568;7.870;2023-07-09T16:15:52;3.60;;;3.20;;
7116;SDS011;3600;48.568;7.870;2023-07-09T16:18:19;4.32;;;2.80;;
7116;SDS011;3600;48.568;7.870;2023-07-09T16:20:46;3.38;;;3.08;;
7116;SDS011;3600;48.568;7.870;2023-07-09T16:23:17;5.20;;;3.03;;
7116;SDS011;3600;48.568;7.870;2023-07-09T16:25:47;4.35;;;2.50;;
7116;SDS011;3600;48.568;7.870;2023-07-09T16:28:16;6.07;;;2.92;;
7116;SDS011;3600;48.568;7.870;2023-07-09T16:30:46;3.38;;;3.05;;
7116;SDS011;3600;48.568;7.870;2023-07-09T16:33:15;4.00;;;3.67;;
7116;SDS011;3600;48.568;7.870;2023-07-09T16:35:41;4.53;;;3.33;;
7116;SDS011;3600;48.568;7.870;2023-07-09T16:38:12;6.50;;;3.33;;
7116;SDS011;3600;48.568;7.870;2023-07-09T16:40:39;6.00;;;3.10;;
7116;SDS011;3600;48.568;7.870;2023-07-09T16:43:16;6.63;;;3.10;;
7116;SDS011;3600;48.568;7.870;2023-07-09T16:45:45;4.40;;;2.40;;